sensor_id;sensor_type;location;lat;lon;timestamp;pressure;altitude;pressure_sealevel;temperature;humidity
59194;BME280;44967;48.598;15.650;2022-11-25T00:00:25;98220.72;;;9.82;58.45
59194;BME280;44967;48.598;15.650;2022-11-25T00:02:51;98213.19;;;9.75;58.13
59194;BME280;44967;48.598;15.650;2022-11-25T00:05:17;98223.00;;;9.64;57.67
59194;BME280;44967;48.598;15.650;2022-11-25T00:07:42;98214.59;;;9.37;58.58
59194;BME280;44967;48.598;15.650;2022-11-25T00:10:08;98225.28;;;9.29;57.58
59194;BME280;44967;48.598;15.650;2022-11-25T00:12:35;98228.81;;;9.30;58.56
59194;BME280;44967;48.598;15.650;2022-11-25T00:15:01;98226.16;;;9.17;58.49
59194;BME280;44967;48.598;15.650;2022-11-25T00:17:26;98214.63;;;9.08;58.04
59194;BME280;44967;48.598;15.650;2022-11-25T00:19:52;98244.25;;;9.10;58.18
59194;BME280;44967;48.598;15.650;2022-11-25T00:22:17;98227.34;;;8.88;58.08
59194;BME280;44967;48.598;15.650;2022-11-25T00:24:43;98228.50;;;8.74;59.52
59194;BME280;44967;48.598;15.650;2022-11-25T00:27:09;98221.28;;;8.66;58.03
59194;BME280;44967;48.598;15.650;2022-11-25T00:29:34;98237.66;;;8.82;58.80
59194;BME280;44967;48.598;15.650;2022-11-25T00:32:00;98223.16;;;8.78;59.47
59194;BME280;44967;48.598;15.650;2022-11-25T00:34:26;98232.13;;;8.78;58.73
59194;BME280;44967;48.598;15.650;2022-11-25T00:36:52;98235.25;;;8.93;59.28
59194;BME280;44967;48.598;15.650;2022-11-25T00:39:18;98229.13;;;8.96;59.20
59194;BME280;44967;48.598;15.650;2022-11-25T00:41:45;98243.72;;;9.04;58.67
59194;BME280;44967;48.598;15.650;2022-11-25T00:44:30;98251.44;;;9.02;58.72
59194;BME280;44967;48.598;15.650;2022-11-25T00:47:08;98251.66;;;8.81;59.05
59194;BME280;44967;48.598;15.650;2022-11-25T00:49:35;98246.38;;;8.47;58.35
59194;BME280;44967;48.598;15.650;2022-11-25T00:52:01;98233.38;;;8.40;59.27
59194;BME280;44967;48.598;15.650;2022-11-25T00:54:27;98239.47;;;8.49;59.79
59194;BME280;44967;48.598;15.650;2022-11-25T00:56:53;98236.16;;;8.44;58.26
59194;BME280;44967;48.598;15.650;2022-11-25T00:59:19;98233.16;;;8.33;59.19
59194;BME280;44967;48.598;15.650;2022-11-25T01:01:46;98231.00;;;8.26;58.16
59194;BME280;44967;48.598;15.650;2022-11-25T01:04:12;98253.56;;;8.27;60.17
59194;BME280;44967;48.598;15.650;2022-11-25T01:06:37;98251.41;;;8.20;60.46
59194;BME280;44967;48.598;15.650;2022-11-25T01:09:04;98246.75;;;8.20;59.06
59194;BME280;44967;48.598;15.650;2022-11-25T01:11:30;98247.69;;;8.25;58.72
59194;BME280;44967;48.598;15.650;2022-11-25T01:13:56;98248.72;;;8.07;59.82
59194;BME280;44967;48.598;15.650;2022-11-25T01:16:24;98254.94;;;8.08;59.40
59194;BME280;44967;48.598;15.650;2022-11-25T01:18:50;98249.63;;;7.74;59.02
59194;BME280;44967;48.598;15.650;2022-11-25T01:21:21;98256.06;;;7.57;59.90
59194;BME280;44967;48.598;15.650;2022-11-25T01:23:47;98264.91;;;7.66;59.90
59194;BME280;44967;48.598;15.650;2022-11-25T01:26:22;98255.94;;;7.53;59.81
59194;BME280;44967;48.598;15.650;2022-11-25T01:28:51;98268.88;;;7.69;60.01
59194;BME280;44967;48.598;15.650;2022-11-25T01:31:20;98257.75;;;7.62;60.34
59194;BME280;44967;48.598;15.650;2022-11-25T01:33:47;98254.47;;;7.68;59.26
59194;BME280;44967;48.598;15.650;2022-11-25T01:36:17;98252.09;;;7.54;59.15
59194;BME280;44967;48.598;15.650;2022-11-25T01:38:44;98268.41;;;7.79;60.52
59194;BME280;44967;48.598;15.650;2022-11-25T01:41:12;98254.50;;;7.81;59.58
59194;BME280;44967;48.598;15.650;2022-11-25T01:43:39;98251.06;;;7.59;59.89
59194;BME280;44967;48.598;15.650;2022-11-25T01:46:42;98251.06;;;7.59;58.32
59194;BME280;44967;48.598;15.650;2022-11-25T01:49:15;98240.06;;;7.55;59.57
59194;BME280;44967;48.598;15.650;2022-11-25T01:51:50;98264.78;;;7.63;59.20
59194;BME280;44967;48.598;15.650;2022-11-25T01:54:21;98254.31;;;7.40;59.27
59194;BME280;44967;48.598;15.650;2022-11-25T01:57:02;98257.28;;;7.47;59.80
59194;BME280;44967;48.598;15.650;2022-11-25T01:59:30;98268.47;;;7.33;59.74
59194;BME280;44967;48.598;15.650;2022-11-25T02:01:57;98259.75;;;7.27;59.72
59194;BME280;44967;48.598;15.650;2022-11-25T02:04:27;98269.81;;;7.27;58.50
59194;BME280;44967;48.598;15.650;2022-11-25T02:06:59;98259.88;;;7.31;59.75
59194;BME280;44967;48.598;15.650;2022-11-25T02:09:26;98255.66;;;7.21;58.70
59194;BME280;44967;48.598;15.650;2022-11-25T02:11:52;98245.69;;;7.25;59.68
59194;BME280;44967;48.598;15.650;2022-11-25T02:14:21;98261.09;;;7.34;59.20
59194;BME280;44967;48.598;15.650;2022-11-25T02:16:48;98258.44;;;7.12;59.95
59194;BME280;44967;48.598;15.650;2022-11-25T02:19:21;98268.00;;;7.31;58.92
59194;BME280;44967;48.598;15.650;2022-11-25T02:21:53;98250.84;;;7.06;58.82
59194;BME280;44967;48.598;15.650;2022-11-25T02:24:29;98273.94;;;7.12;59.64
59194;BME280;44967;48.598;15.650;2022-11-25T02:26:56;98253.09;;;7.04;59.40
59194;BME280;44967;48.598;15.650;2022-11-25T02:29:21;98247.75;;;6.95;60.05
59194;BME280;44967;48.598;15.650;2022-11-25T02:31:48;98264.56;;;7.09;58.93
59194;BME280;44967;48.598;15.650;2022-11-25T02:34:15;98269.16;;;7.09;59.91
59194;BME280;44967;48.598;15.650;2022-11-25T02:36:41;98262.16;;;7.08;60.51
59194;BME280;44967;48.598;15.650;2022-11-25T02:39:07;98252.22;;;6.78;60.72
59194;BME280;44967;48.598;15.650;2022-11-25T02:41:46;98266.44;;;6.96;60.27
59194;BME280;44967;48.598;15.650;2022-11-25T02:44:14;98249.28;;;6.83;60.31
59194;BME280;44967;48.598;15.650;2022-11-25T02:46:40;98268.34;;;6.96;60.18
59194;BME280;44967;48.598;15.650;2022-11-25T02:49:06;98254.06;;;6.86;58.86
59194;BME280;44967;48.598;15.650;2022-11-25T02:51:32;98254.69;;;6.83;59.74
59194;BME280;44967;48.598;15.650;2022-11-25T02:53:59;98262.00;;;6.92;59.27
59194;BME280;44967;48.598;15.650;2022-11-25T02:56:28;98277.03;;;6.89;58.84
59194;BME280;44967;48.598;15.650;2022-11-25T02:58:54;98255.69;;;6.79;59.69
59194;BME280;44967;48.598;15.650;2022-11-25T03:01:20;98255.78;;;6.70;59.21
59194;BME280;44967;48.598;15.650;2022-11-25T03:03:46;98269.09;;;6.63;58.11
59194;BME280;44967;48.598;15.650;2022-11-25T03:06:11;98276.28;;;6.58;60.10
59194;BME280;44967;48.598;15.650;2022-11-25T03:08:38;98277.81;;;6.68;58.11
59194;BME280;44967;48.598;15.650;2022-11-25T03:11:04;98262.31;;;6.48;59.88
59194;BME280;44967;48.598;15.650;2022-11-25T03:13:29;98273.84;;;6.44;59.86
59194;BME280;44967;48.598;15.650;2022-11-25T03:15:55;98275.97;;;6.39;59.36
59194;BME280;44967;48.598;15.650;2022-11-25T03:18:21;98292.56;;;6.37;59.11
59194;BME280;44967;48.598;15.650;2022-11-25T03:20:51;98296.38;;;6.45;59.22
59194;BME280;44967;48.598;15.650;2022-11-25T03:23:17;98301.72;;;6.54;59.88
59194;BME280;44967;48.598;15.650;2022-11-25T03:25:43;98293.66;;;6.15;59.69
59194;BME280;44967;48.598;15.650;2022-11-25T03:28:09;98285.97;;;6.17;59.52
59194;BME280;44967;48.598;15.650;2022-11-25T03:30:35;98300.09;;;6.31;60.51
59194;BME280;44967;48.598;15.650;2022-11-25T03:33:01;98286.66;;;6.14;59.38
59194;BME280;44967;48.598;15.650;2022-11-25T03:35:27;98296.44;;;6.27;59.08
59194;BME280;44967;48.598;15.650;2022-11-25T03:37:56;98307.97;;;6.24;60.54
59194;BME280;44967;48.598;15.650;2022-11-25T03:40:22;98296.22;;;6.11;60.43
59194;BME280;44967;48.598;15.650;2022-11-25T03:42:48;98301.31;;;6.13;58.61
59194;BME280;44967;48.598;15.650;2022-11-25T03:45:14;98302.81;;;6.31;59.03
59194;BME280;44967;48.598;15.650;2022-11-25T03:47:41;98312.84;;;6.31;58.62
59194;BME280;44967;48.598;15.650;2022-11-25T03:50:08;98323.25;;;6.29;59.40
59194;BME280;44967;48.598;15.650;2022-11-25T03:52:35;98315.91;;;6.29;58.83
59194;BME280;44967;48.598;15.650;2022-11-25T03:55:00;98307.16;;;6.24;57.69
59194;BME280;44967;48.598;15.650;2022-11-25T03:57:26;98306.94;;;5.99;59.70
59194;BME280;44967;48.598;15.650;2022-11-25T03:59:52;98319.03;;;6.10;58.92
59194;BME280;44967;48.598;15.650;2022-11-25T04:02:18;98306.31;;;6.02;59.05
59194;BME280;44967;48.598;15.650;2022-11-25T04:04:43;98298.84;;;5.90;60.30
59194;BME280;44967;48.598;15.650;2022-11-25T04:07:09;98307.31;;;5.88;58.37
59194;BME280;44967;48.598;15.650;2022-11-25T04:09:35;98300.91;;;6.02;60.22
59194;BME280;44967;48.598;15.650;2022-11-25T04:12:00;98296.72;;;6.04;59.52
59194;BME280;44967;48.598;15.650;2022-11-25T04:14:44;98301.28;;;5.83;60.29
59194;BME280;44967;48.598;15.650;2022-11-25T04:17:10;98302.09;;;5.74;58.75
59194;BME280;44967;48.598;15.650;2022-11-25T04:19:36;98311.97;;;5.79;59.92
59194;BME280;44967;48.598;15.650;2022-11-25T04:22:01;98307.03;;;5.72;58.44
59194;BME280;44967;48.598;15.650;2022-11-25T04:24:27;98306.06;;;5.77;58.63
59194;BME280;44967;48.598;15.650;2022-11-25T04:26:54;98306.50;;;5.88;59.10
59194;BME280;44967;48.598;15.650;2022-11-25T04:29:19;98302.56;;;5.76;58.98
59194;BME280;44967;48.598;15.650;2022-11-25T04:31:45;98305.75;;;5.79;60.09
59194;BME280;44967;48.598;15.650;2022-11-25T04:34:11;98302.09;;;5.74;59.25
59194;BME280;44967;48.598;15.650;2022-11-25T04:36:36;98308.97;;;5.72;58.78
59194;BME280;44967;48.598;15.650;2022-11-25T04:39:03;98317.91;;;5.63;58.24
59194;BME280;44967;48.598;15.650;2022-11-25T04:41:28;98317.25;;;5.67;58.42
59194;BME280;44967;48.598;15.650;2022-11-25T04:43:54;98319.50;;;5.65;58.51
59194;BME280;44967;48.598;15.650;2022-11-25T04:46:21;98331.63;;;5.58;59.17
59194;BME280;44967;48.598;15.650;2022-11-25T04:48:49;98331.16;;;5.47;58.74
59194;BME280;44967;48.598;15.650;2022-11-25T04:51:15;98324.03;;;5.25;58.07
59194;BME280;44967;48.598;15.650;2022-11-25T04:53:41;98347.72;;;5.55;60.25
59194;BME280;44967;48.598;15.650;2022-11-25T04:56:09;98338.97;;;5.49;58.06
59194;BME280;44967;48.598;15.650;2022-11-25T04:58:40;98336.44;;;5.35;58.32
59194;BME280;44967;48.598;15.650;2022-11-25T05:01:24;98352.41;;;5.28;58.52
59194;BME280;44967;48.598;15.650;2022-11-25T05:03:50;98344.13;;;5.24;58.88
59194;BME280;44967;48.598;15.650;2022-11-25T05:06:15;98345.69;;;5.34;57.73
59194;BME280;44967;48.598;15.650;2022-11-25T05:08:41;98341.56;;;5.28;59.32
59194;BME280;44967;48.598;15.650;2022-11-25T05:11:07;98356.97;;;5.45;58.94
59194;BME280;44967;48.598;15.650;2022-11-25T05:13:32;98342.50;;;5.41;58.77
59194;BME280;44967;48.598;15.650;2022-11-25T05:15:58;98352.53;;;5.49;58.23
59194;BME280;44967;48.598;15.650;2022-11-25T05:18:25;98350.00;;;5.17;57.62
59194;BME280;44967;48.598;15.650;2022-11-25T05:20:50;98353.19;;;5.19;58.62
59194;BME280;44967;48.598;15.650;2022-11-25T05:23:16;98357.97;;;5.22;59.08
59194;BME280;44967;48.598;15.650;2022-11-25T05:25:42;98355.88;;;5.19;57.68
59194;BME280;44967;48.598;15.650;2022-11-25T05:28:07;98356.22;;;5.09;58.54
59194;BME280;44967;48.598;15.650;2022-11-25T05:30:33;98370.88;;;5.08;58.49
59194;BME280;44967;48.598;15.650;2022-11-25T05:32:58;98362.75;;;4.99;60.06
59194;BME280;44967;48.598;15.650;2022-11-25T05:35:24;98364.50;;;5.04;58.99
59194;BME280;44967;48.598;15.650;2022-11-25T05:37:51;98352.72;;;5.08;57.69
59194;BME280;44967;48.598;15.650;2022-11-25T05:40:17;98344.78;;;5.12;59.68
59194;BME280;44967;48.598;15.650;2022-11-25T05:42:43;98356.69;;;5.20;58.94
59194;BME280;44967;48.598;15.650;2022-11-25T05:45:09;98358.94;;;5.18;57.94
59194;BME280;44967;48.598;15.650;2022-11-25T05:47:35;98356.22;;;5.09;57.83
59194;BME280;44967;48.598;15.650;2022-11-25T05:50:01;98355.75;;;5.07;58.29
59194;BME280;44967;48.598;15.650;2022-11-25T05:52:26;98356.88;;;5.06;58.01
59194;BME280;44967;48.598;15.650;2022-11-25T05:54:52;98351.13;;;5.16;59.52
59194;BME280;44967;48.598;15.650;2022-11-25T05:57:18;98351.78;;;5.13;59.38
59194;BME280;44967;48.598;15.650;2022-11-25T05:59:43;98352.22;;;5.06;59.21
59194;BME280;44967;48.598;15.650;2022-11-25T06:02:10;98355.44;;;5.00;57.34
59194;BME280;44967;48.598;15.650;2022-11-25T06:04:36;98358.28;;;4.94;58.74
59194;BME280;44967;48.598;15.650;2022-11-25T06:07:01;98347.28;;;4.91;58.90
59194;BME280;44967;48.598;15.650;2022-11-25T06:09:28;98363.38;;;4.96;57.99
59194;BME280;44967;48.598;15.650;2022-11-25T06:11:53;98352.22;;;4.89;58.02
59194;BME280;44967;48.598;15.650;2022-11-25T06:14:19;98373.06;;;4.88;57.99
59194;BME280;44967;48.598;15.650;2022-11-25T06:16:44;98356.53;;;4.81;59.13
59194;BME280;44967;48.598;15.650;2022-11-25T06:19:10;98384.22;;;4.96;58.24
59194;BME280;44967;48.598;15.650;2022-11-25T06:21:36;98362.41;;;4.92;58.39
59194;BME280;44967;48.598;15.650;2022-11-25T06:24:01;98352.38;;;4.84;58.83
59194;BME280;44967;48.598;15.650;2022-11-25T06:26:27;98362.91;;;4.85;58.13
59194;BME280;44967;48.598;15.650;2022-11-25T06:28:54;98392.03;;;4.97;58.66
59194;BME280;44967;48.598;15.650;2022-11-25T06:31:22;98377.72;;;4.97;59.26
59194;BME280;44967;48.598;15.650;2022-11-25T06:33:50;98386.94;;;4.96;59.23
59194;BME280;44967;48.598;15.650;2022-11-25T06:36:17;98376.13;;;5.04;59.09
59194;BME280;44967;48.598;15.650;2022-11-25T06:38:51;98382.97;;;5.02;58.92
59194;BME280;44967;48.598;15.650;2022-11-25T06:41:18;98380.91;;;4.99;59.42
59194;BME280;44967;48.598;15.650;2022-11-25T06:43:44;98376.75;;;5.10;58.14
59194;BME280;44967;48.598;15.650;2022-11-25T06:46:12;98381.53;;;4.96;57.42
59194;BME280;44967;48.598;15.650;2022-11-25T06:48:38;98400.97;;;4.98;58.44
59194;BME280;44967;48.598;15.650;2022-11-25T06:51:06;98395.25;;;5.08;59.07
59194;BME280;44967;48.598;15.650;2022-11-25T06:53:33;98386.81;;;5.10;59.24
59194;BME280;44967;48.598;15.650;2022-11-25T06:56:12;98393.66;;;5.16;57.48
59194;BME280;44967;48.598;15.650;2022-11-25T06:58:38;98394.28;;;5.21;58.67
59194;BME280;44967;48.598;15.650;2022-11-25T07:01:12;98416.25;;;5.38;58.12
59194;BME280;44967;48.598;15.650;2022-11-25T07:03:39;98402.75;;;5.29;58.92
59194;BME280;44967;48.598;15.650;2022-11-25T07:06:05;98394.28;;;5.21;58.09
59194;BME280;44967;48.598;15.650;2022-11-25T07:08:31;98388.88;;;5.39;57.83
59194;BME280;44967;48.598;15.650;2022-11-25T07:11:11;98414.69;;;5.45;57.95
59194;BME280;44967;48.598;15.650;2022-11-25T07:13:40;98396.03;;;5.26;58.05
59194;BME280;44967;48.598;15.650;2022-11-25T07:16:06;98410.38;;;5.44;58.70
59194;BME280;44967;48.598;15.650;2022-11-25T07:18:34;98425.97;;;5.39;57.56
59194;BME280;44967;48.598;15.650;2022-11-25T07:21:05;98414.84;;;5.31;59.11
59194;BME280;44967;48.598;15.650;2022-11-25T07:23:32;98397.13;;;5.34;58.85
59194;BME280;44967;48.598;15.650;2022-11-25T07:26:03;98402.72;;;5.38;59.64
59194;BME280;44967;48.598;15.650;2022-11-25T07:28:29;98404.97;;;5.35;59.46
59194;BME280;44967;48.598;15.650;2022-11-25T07:30:55;98412.09;;;5.58;58.97
59194;BME280;44967;48.598;15.650;2022-11-25T07:33:20;98409.56;;;5.53;58.19
59194;BME280;44967;48.598;15.650;2022-11-25T07:35:46;98400.16;;;5.59;58.24
59194;BME280;44967;48.598;15.650;2022-11-25T07:38:11;98402.38;;;5.57;57.97
59194;BME280;44967;48.598;15.650;2022-11-25T07:40:37;98406.53;;;5.63;58.09
59194;BME280;44967;48.598;15.650;2022-11-25T07:43:03;98403.66;;;5.68;59.68
59194;BME280;44967;48.598;15.650;2022-11-25T07:45:29;98393.47;;;5.56;59.14
59194;BME280;44967;48.598;15.650;2022-11-25T07:47:55;98397.47;;;5.59;60.15
59194;BME280;44967;48.598;15.650;2022-11-25T07:50:20;98406.03;;;5.70;59.70
59194;BME280;44967;48.598;15.650;2022-11-25T07:52:46;98405.88;;;5.75;59.90
59194;BME280;44967;48.598;15.650;2022-11-25T07:55:11;98412.88;;;5.76;59.10
59194;BME280;44967;48.598;15.650;2022-11-25T07:57:38;98398.69;;;5.70;58.71
59194;BME280;44967;48.598;15.650;2022-11-25T08:00:04;98403.66;;;5.68;60.14
59194;BME280;44967;48.598;15.650;2022-11-25T08:02:30;98401.72;;;5.69;60.10
59194;BME280;44967;48.598;15.650;2022-11-25T08:04:56;98416.25;;;5.73;59.47
59194;BME280;44967;48.598;15.650;2022-11-25T08:07:21;98411.25;;;5.93;60.11
59194;BME280;44967;48.598;15.650;2022-11-25T08:09:47;98410.63;;;5.87;60.16
59194;BME280;44967;48.598;15.650;2022-11-25T08:12:12;98404.88;;;5.88;59.63
59194;BME280;44967;48.598;15.650;2022-11-25T08:14:38;98406.78;;;5.97;59.51
59194;BME280;44967;48.598;15.650;2022-11-25T08:17:03;98417.28;;;6.07;59.70
59194;BME280;44967;48.598;15.650;2022-11-25T08:19:30;98400.53;;;6.14;59.96
59194;BME280;44967;48.598;15.650;2022-11-25T08:21:56;98400.97;;;6.25;59.77
59194;BME280;44967;48.598;15.650;2022-11-25T08:24:22;98428.19;;;6.46;59.93
59194;BME280;44967;48.598;15.650;2022-11-25T08:26:48;98430.38;;;6.53;60.19
59194;BME280;44967;48.598;15.650;2022-11-25T08:29:16;98420.66;;;6.52;59.66
59194;BME280;44967;48.598;15.650;2022-11-25T08:31:42;98408.66;;;6.53;59.73
59194;BME280;44967;48.598;15.650;2022-11-25T08:34:08;98409.09;;;6.64;59.36
59194;BME280;44967;48.598;15.650;2022-11-25T08:36:34;98412.72;;;6.68;60.34
59194;BME280;44967;48.598;15.650;2022-11-25T08:39:03;98402.00;;;6.71;58.84
59194;BME280;44967;48.598;15.650;2022-11-25T08:41:33;98409.94;;;6.85;60.40
59194;BME280;44967;48.598;15.650;2022-11-25T08:44:00;98410.19;;;6.93;59.80
59194;BME280;44967;48.598;15.650;2022-11-25T08:46:29;98419.25;;;6.97;60.26
59194;BME280;44967;48.598;15.650;2022-11-25T08:48:56;98414.50;;;6.94;59.85
59194;BME280;44967;48.598;15.650;2022-11-25T08:51:25;98418.63;;;7.00;59.32
59194;BME280;44967;48.598;15.650;2022-11-25T08:53:51;98418.91;;;7.07;60.36
59194;BME280;44967;48.598;15.650;2022-11-25T08:56:18;98419.75;;;7.20;60.33
59194;BME280;44967;48.598;15.650;2022-11-25T08:58:44;98417.75;;;7.30;59.69
59194;BME280;44967;48.598;15.650;2022-11-25T09:01:11;98418.41;;;7.48;59.44
59194;BME280;44967;48.598;15.650;2022-11-25T09:03:41;98422.03;;;7.52;60.00
59194;BME280;44967;48.598;15.650;2022-11-25T09:06:08;98422.75;;;7.61;59.75
59194;BME280;44967;48.598;15.650;2022-11-25T09:08:34;98437.75;;;7.67;60.00
59194;BME280;44967;48.598;15.650;2022-11-25T09:11:00;98416.09;;;7.59;59.90
59194;BME280;44967;48.598;15.650;2022-11-25T09:13:26;98426.66;;;7.73;59.92
59194;BME280;44967;48.598;15.650;2022-11-25T09:15:52;98424.81;;;7.64;59.33
59194;BME280;44967;48.598;15.650;2022-11-25T09:18:18;98435.41;;;7.78;60.07
59194;BME280;44967;48.598;15.650;2022-11-25T09:20:45;98440.66;;;7.96;59.28
59194;BME280;44967;48.598;15.650;2022-11-25T09:23:12;98447.59;;;8.06;58.99
59194;BME280;44967;48.598;15.650;2022-11-25T09:25:38;98424.25;;;8.05;58.64
59194;BME280;44967;48.598;15.650;2022-11-25T09:28:04;98430.59;;;7.96;58.52
59194;BME280;44967;48.598;15.650;2022-11-25T09:30:30;98431.63;;;8.04;58.80
59194;BME280;44967;48.598;15.650;2022-11-25T09:32:56;98431.97;;;8.15;60.17
59194;BME280;44967;48.598;15.650;2022-11-25T09:35:23;98428.47;;;8.27;59.32
59194;BME280;44967;48.598;15.650;2022-11-25T09:37:49;98451.53;;;8.42;59.12
59194;BME280;44967;48.598;15.650;2022-11-25T09:40:26;98454.03;;;8.47;58.44
59194;BME280;44967;48.598;15.650;2022-11-25T09:43:29;98453.56;;;8.45;59.08
59194;BME280;44967;48.598;15.650;2022-11-25T09:55:15;98444.88;;;8.77;58.20
59194;BME280;44967;48.598;15.650;2022-11-25T09:58:15;98447.81;;;8.97;58.60
59194;BME280;44967;48.598;15.650;2022-11-25T10:00:46;98411.84;;;8.91;59.03
59194;BME280;44967;48.598;15.650;2022-11-25T10:05:44;98423.28;;;9.09;58.71
59194;BME280;44967;48.598;15.650;2022-11-25T10:08:16;98424.03;;;9.22;58.28
59194;BME280;44967;48.598;15.650;2022-11-25T10:10:46;98415.44;;;9.20;57.94
59194;BME280;44967;48.598;15.650;2022-11-25T10:13:36;98436.72;;;9.43;58.02
59194;BME280;44967;48.598;15.650;2022-11-25T10:18:59;98418.63;;;9.51;57.76
59194;BME280;44967;48.598;15.650;2022-11-25T10:21:25;98427.44;;;9.60;57.98
59194;BME280;44967;48.598;15.650;2022-11-25T10:23:52;98412.31;;;9.63;58.10
59194;BME280;44967;48.598;15.650;2022-11-25T10:26:20;98414.72;;;9.64;57.65
59194;BME280;44967;48.598;15.650;2022-11-25T10:29:12;98432.00;;;9.84;57.32
59194;BME280;44967;48.598;15.650;2022-11-25T10:31:43;98422.75;;;9.89;57.36
59194;BME280;44967;48.598;15.650;2022-11-25T10:34:34;98409.50;;;10.04;57.37
59194;BME280;44967;48.598;15.650;2022-11-25T10:37:05;98403.59;;;10.01;56.49
59194;BME280;44967;48.598;15.650;2022-11-25T10:39:34;98403.41;;;10.10;56.70
59194;BME280;44967;48.598;15.650;2022-11-25T10:42:08;98409.50;;;10.20;56.70
59194;BME280;44967;48.598;15.650;2022-11-25T10:44:39;98397.91;;;10.23;57.06
59194;BME280;44967;48.598;15.650;2022-11-25T10:52:36;98398.41;;;10.61;56.80
59194;BME280;44967;48.598;15.650;2022-11-25T10:55:16;98380.72;;;10.54;57.00
59194;BME280;44967;48.598;15.650;2022-11-25T10:57:42;98377.63;;;10.56;57.41
59194;BME280;44967;48.598;15.650;2022-11-25T11:00:31;98369.59;;;10.63;56.43
59194;BME280;44967;48.598;15.650;2022-11-25T11:03:00;98379.06;;;10.86;56.22
59194;BME280;44967;48.598;15.650;2022-11-25T11:05:47;98393.34;;;10.95;56.51
59194;BME280;44967;48.598;15.650;2022-11-25T11:08:25;98384.56;;;11.05;55.74
59194;BME280;44967;48.598;15.650;2022-11-25T11:11:21;98367.59;;;10.96;55.01
59194;BME280;44967;48.598;15.650;2022-11-25T11:13:48;98389.63;;;11.03;56.05
59194;BME280;44967;48.598;15.650;2022-11-25T11:16:28;98385.22;;;10.99;55.00
59194;BME280;44967;48.598;15.650;2022-11-25T11:18:56;98368.94;;;10.86;55.11
59194;BME280;44967;48.598;15.650;2022-11-25T11:21:34;98375.06;;;10.99;55.54
59194;BME280;44967;48.598;15.650;2022-11-25T11:24:02;98355.13;;;10.79;55.55
59194;BME280;44967;48.598;15.650;2022-11-25T11:26:33;98358.75;;;10.83;55.01
59194;BME280;44967;48.598;15.650;2022-11-25T11:31:36;98352.44;;;10.99;54.76
59194;BME280;44967;48.598;15.650;2022-11-25T11:55:55;98376.13;;;11.73;52.84
59194;BME280;44967;48.598;15.650;2022-11-25T12:01:39;98374.41;;;11.85;52.20
59194;BME280;44967;48.598;15.650;2022-11-25T12:06:41;98356.50;;;11.91;50.13
59194;BME280;44967;48.598;15.650;2022-11-25T12:09:15;98368.78;;;12.01;50.40
59194;BME280;44967;48.598;15.650;2022-11-25T12:11:49;98365.44;;;12.07;50.64
59194;BME280;44967;48.598;15.650;2022-11-25T12:15:01;98368.34;;;12.18;50.98
59194;BME280;44967;48.598;15.650;2022-11-25T12:17:15;98353.44;;;12.16;50.59
59194;BME280;44967;48.598;15.650;2022-11-25T12:19:55;98348.69;;;12.13;49.47
59194;BME280;44967;48.598;15.650;2022-11-25T12:22:29;98348.75;;;12.16;49.27
59194;BME280;44967;48.598;15.650;2022-11-25T12:25:00;98369.47;;;12.41;49.53
59194;BME280;44967;48.598;15.650;2022-11-25T12:27:33;98365.94;;;12.40;49.18
59194;BME280;44967;48.598;15.650;2022-11-25T12:30:08;98348.19;;;12.30;49.46
59194;BME280;44967;48.598;15.650;2022-11-25T12:38:19;98368.94;;;12.31;49.57
59194;BME280;44967;48.598;15.650;2022-11-25T12:41:00;98365.59;;;12.18;50.24
59194;BME280;44967;48.598;15.650;2022-11-25T12:43:46;98374.91;;;12.14;50.41
59194;BME280;44967;48.598;15.650;2022-11-25T12:46:24;98369.44;;;12.14;50.29
59194;BME280;44967;48.598;15.650;2022-11-25T12:48:52;98347.06;;;12.08;50.79
59194;BME280;44967;48.598;15.650;2022-11-25T13:00:21;98363.78;;;12.53;51.40
59194;BME280;44967;48.598;15.650;2022-11-25T13:05:35;98358.91;;;12.66;51.71
59194;BME280;44967;48.598;15.650;2022-11-25T13:17:08;98348.66;;;12.63;49.99
59194;BME280;44967;48.598;15.650;2022-11-25T13:19:36;98365.09;;;12.63;49.98
59194;BME280;44967;48.598;15.650;2022-11-25T13:22:05;98362.59;;;12.51;50.71
59194;BME280;44967;48.598;15.650;2022-11-25T13:24:51;98366.09;;;12.51;50.46
59194;BME280;44967;48.598;15.650;2022-11-25T13:32:56;98366.63;;;12.33;50.26
59194;BME280;44967;48.598;15.650;2022-11-25T13:37:51;98358.28;;;12.03;52.23
59194;BME280;44967;48.598;15.650;2022-11-25T13:42:56;98377.78;;;11.78;53.56
59194;BME280;44967;48.598;15.650;2022-11-25T13:47:51;98374.00;;;11.63;53.48
59194;BME280;44967;48.598;15.650;2022-11-25T13:50:23;98380.69;;;11.46;55.15
59194;BME280;44967;48.598;15.650;2022-11-25T13:53:00;98362.44;;;11.30;55.36
59194;BME280;44967;48.598;15.650;2022-11-25T13:55:36;98356.09;;;11.26;54.92
59194;BME280;44967;48.598;15.650;2022-11-25T14:25:24;98409.00;;;10.62;56.49
59194;BME280;44967;48.598;15.650;2022-11-25T14:28:07;98410.66;;;10.51;56.68
59194;BME280;44967;48.598;15.650;2022-11-25T14:30:46;98398.78;;;10.43;57.45
59194;BME280;44967;48.598;15.650;2022-11-25T14:33:19;98399.72;;;10.19;56.75
59194;BME280;44967;48.598;15.650;2022-11-25T14:35:54;98403.06;;;10.12;57.62
59194;BME280;44967;48.598;15.650;2022-11-25T14:38:45;98405.47;;;10.13;57.22
59194;BME280;44967;48.598;15.650;2022-11-25T14:41:19;98420.06;;;10.21;57.25
59194;BME280;44967;48.598;15.650;2022-11-25T14:43:58;98411.53;;;10.23;57.56
59194;BME280;44967;48.598;15.650;2022-11-25T14:46:25;98413.84;;;10.21;57.41
59194;BME280;44967;48.598;15.650;2022-11-25T14:48:56;98414.69;;;10.25;57.36
59194;BME280;44967;48.598;15.650;2022-11-25T14:51:23;98423.16;;;10.36;57.39
59194;BME280;44967;48.598;15.650;2022-11-25T14:53:50;98415.66;;;10.17;56.97
59194;BME280;44967;48.598;15.650;2022-11-25T14:56:26;98411.19;;;10.24;57.24
59194;BME280;44967;48.598;15.650;2022-11-25T14:58:54;98399.28;;;10.17;57.76
59194;BME280;44967;48.598;15.650;2022-11-25T15:01:32;98421.22;;;10.20;57.51
59194;BME280;44967;48.598;15.650;2022-11-25T15:06:53;98412.41;;;10.11;57.10